createdAt,value
2022-07-30T00:01:35.743Z,99.90
2022-07-30T00:04:05.995Z,99.90
2022-07-30T00:06:32.919Z,99.90
2022-07-30T00:08:59.744Z,99.90
2022-07-30T00:11:28.069Z,99.90
2022-07-30T00:13:55.328Z,99.90
2022-07-30T00:16:22.451Z,99.90
2022-07-30T00:18:49.362Z,99.90
2022-07-30T00:21:20.294Z,99.90
2022-07-30T00:24:04.461Z,99.90
2022-07-30T00:26:31.481Z,99.90
2022-07-30T00:28:58.609Z,99.90
2022-07-30T00:31:25.485Z,99.90
2022-07-30T00:33:52.341Z,99.90
2022-07-30T00:36:19.193Z,99.90
2022-07-30T00:38:46.296Z,99.90
2022-07-30T00:41:13.207Z,99.90
2022-07-30T00:43:44.796Z,99.90
2022-07-30T00:46:11.806Z,99.90
2022-07-30T00:48:38.731Z,99.90
2022-07-30T00:51:05.668Z,99.90
2022-07-30T00:53:33.531Z,99.90
2022-07-30T00:56:00.470Z,99.90
2022-07-30T00:58:27.671Z,99.90
2022-07-30T01:00:54.568Z,99.90
2022-07-30T01:03:21.485Z,99.90
2022-07-30T01:05:48.373Z,99.90
2022-07-30T01:08:15.161Z,99.90
2022-07-30T01:10:41.991Z,99.90
2022-07-30T01:13:09.470Z,99.90
2022-07-30T01:15:37.944Z,99.90
2022-07-30T01:18:08.098Z,99.90
2022-07-30T01:21:03.255Z,99.90
2022-07-30T01:23:38.048Z,99.90
2022-07-30T01:26:08.916Z,99.90
2022-07-30T01:28:51.331Z,99.90
2022-07-30T01:31:20.967Z,99.90
2022-07-30T01:33:49.539Z,99.90
2022-07-30T01:36:20.753Z,99.90
2022-07-30T01:38:49.509Z,99.90
2022-07-30T01:41:19.482Z,99.90
2022-07-30T01:43:47.531Z,99.90
2022-07-30T01:46:17.023Z,99.90
2022-07-30T01:48:45.563Z,99.90
2022-07-30T01:51:13.785Z,99.90
2022-07-30T01:53:42.411Z,99.90
2022-07-30T01:56:16.936Z,99.90
2022-07-30T01:58:46.400Z,99.90
2022-07-30T02:01:13.486Z,99.90
2022-07-30T02:03:40.495Z,99.90
2022-07-30T02:06:17.753Z,99.90
2022-07-30T02:09:10.687Z,99.90
2022-07-30T02:12:02.282Z,99.90
2022-07-30T02:14:38.066Z,99.90
2022-07-30T02:17:06.616Z,99.90
2022-07-30T02:19:41.745Z,99.90
2022-07-30T02:22:12.830Z,99.90
2022-07-30T02:24:42.869Z,99.90
2022-07-30T02:27:22.609Z,99.90
2022-07-30T02:29:52.018Z,99.90
2022-07-30T02:32:22.292Z,99.90
2022-07-30T02:34:55.326Z,99.90
2022-07-30T02:37:39.216Z,99.90
2022-07-30T02:40:14.547Z,99.90
2022-07-30T02:42:45.603Z,99.90
2022-07-30T02:45:13.533Z,99.90
2022-07-30T02:47:42.348Z,99.90
2022-07-30T02:50:10.801Z,99.90
2022-07-30T02:52:39.833Z,99.90
2022-07-30T02:55:09.420Z,99.90
2022-07-30T02:57:36.795Z,99.90
2022-07-30T03:00:11.844Z,99.90
2022-07-30T03:02:39.840Z,99.90
2022-07-30T03:05:11.546Z,99.90
2022-07-30T03:07:40.452Z,99.90
2022-07-30T03:10:08.856Z,99.90
2022-07-30T03:12:37.889Z,99.90
2022-07-30T03:15:05.555Z,99.90
2022-07-30T03:17:38.625Z,99.90
2022-07-30T03:20:09.384Z,99.90
2022-07-30T03:22:41.395Z,99.90
2022-07-30T03:25:10.183Z,99.90
2022-07-30T03:27:38.637Z,99.90
2022-07-30T03:30:07.346Z,99.90
2022-07-30T03:32:35.167Z,99.90
2022-07-30T03:35:06.409Z,99.90
2022-07-30T03:37:37.805Z,99.90
2022-07-30T03:40:06.457Z,99.90
2022-07-30T03:42:34.845Z,99.90
2022-07-30T03:45:07.616Z,99.90
2022-07-30T03:47:38.653Z,99.90
2022-07-30T03:50:06.140Z,99.90
2022-07-30T03:52:35.086Z,99.90
2022-07-30T03:55:03.173Z,99.90
2022-07-30T03:57:30.369Z,99.90
2022-07-30T03:59:57.228Z,99.90
2022-07-30T04:02:24.129Z,99.90
2022-07-30T04:04:51.037Z,99.90
2022-07-30T04:07:18.493Z,99.90
2022-07-30T04:09:45.289Z,99.90
2022-07-30T04:12:13.842Z,99.90
2022-07-30T04:14:45.451Z,99.90
2022-07-30T04:17:33.471Z,99.90
2022-07-30T04:20:17.739Z,99.90
2022-07-30T04:22:45.666Z,99.90
2022-07-30T04:25:18.478Z,99.90
2022-07-30T04:28:02.949Z,99.90
2022-07-30T04:30:30.807Z,99.90
2022-07-30T04:32:57.645Z,99.90
2022-07-30T04:35:50.722Z,99.90
2022-07-30T04:38:20.103Z,99.90
2022-07-30T04:40:47.388Z,99.90
2022-07-30T04:43:14.716Z,99.90
2022-07-30T04:45:42.142Z,99.90
2022-07-30T04:48:09.074Z,99.90
2022-07-30T04:50:40.872Z,99.90
2022-07-30T04:53:08.297Z,99.90
2022-07-30T04:55:35.995Z,99.90
2022-07-30T04:58:03.650Z,99.90
2022-07-30T05:00:32.725Z,99.90
2022-07-30T05:03:02.403Z,99.90
2022-07-30T05:05:32.428Z,99.90
2022-07-30T05:08:01.235Z,99.90
2022-07-30T05:10:29.101Z,99.90
2022-07-30T05:12:55.954Z,99.90
2022-07-30T05:15:23.307Z,99.90
2022-07-30T05:18:03.400Z,99.90
2022-07-30T05:20:30.222Z,99.90
2022-07-30T05:22:58.067Z,99.90
2022-07-30T05:25:24.902Z,99.90
2022-07-30T05:27:52.585Z,99.90
2022-07-30T05:30:19.571Z,99.90
2022-07-30T05:32:52.950Z,99.90
2022-07-30T05:35:20.155Z,99.90
2022-07-30T05:37:46.968Z,99.90
2022-07-30T05:40:14.163Z,99.90
2022-07-30T05:42:41.193Z,99.90
2022-07-30T05:45:08.521Z,99.90
2022-07-30T05:47:35.330Z,99.90
2022-07-30T05:50:04.974Z,99.90
2022-07-30T05:52:32.683Z,99.90
2022-07-30T05:54:59.492Z,99.90
2022-07-30T05:57:26.426Z,99.90
2022-07-30T05:59:53.378Z,99.90
2022-07-30T06:02:20.227Z,99.90
2022-07-30T06:04:51.766Z,99.90
2022-07-30T06:07:18.884Z,99.90
2022-07-30T06:09:45.689Z,99.90
2022-07-30T06:12:12.570Z,99.90
2022-07-30T06:14:39.414Z,99.90
2022-07-30T06:17:06.409Z,99.90
2022-07-30T06:19:33.240Z,99.90
2022-07-30T06:22:05.708Z,99.90
2022-07-30T06:24:34.213Z,99.90
2022-07-30T06:27:01.536Z,99.90
2022-07-30T06:29:28.655Z,99.90
2022-07-30T06:31:55.837Z,99.90
2022-07-30T06:34:22.998Z,99.90
2022-07-30T06:36:50.011Z,99.90
2022-07-30T06:39:57.572Z,99.90
2022-07-30T06:42:04.364Z,99.90
2022-07-30T06:44:31.288Z,99.90
2022-07-30T06:46:58.620Z,99.90
2022-07-30T06:49:26.719Z,99.90
2022-07-30T06:51:53.712Z,99.90
2022-07-30T06:54:20.552Z,99.90
2022-07-30T06:56:47.357Z,99.90
2022-07-30T06:59:14.211Z,99.90
2022-07-30T07:01:41.191Z,99.90
2022-07-30T07:04:08.709Z,99.90
2022-07-30T07:06:35.654Z,99.90
2022-07-30T07:09:02.659Z,99.90
2022-07-30T07:11:29.493Z,99.90
2022-07-30T07:13:56.316Z,99.90
2022-07-30T07:16:25.475Z,99.90
2022-07-30T07:18:53.578Z,99.90
2022-07-30T07:21:21.230Z,99.90
2022-07-30T07:23:51.392Z,99.80
2022-07-30T07:26:18.332Z,98.60
2022-07-30T07:28:45.188Z,96.80
2022-07-30T07:32:06.113Z,95.70
2022-07-30T07:33:59.035Z,94.50
2022-07-30T07:36:25.917Z,92.90
2022-07-30T07:38:52.779Z,92.10
2022-07-30T07:41:19.633Z,91.00
2022-07-30T07:43:46.461Z,89.50
2022-07-30T07:46:17.195Z,87.50
2022-07-30T07:49:01.351Z,84.80
2022-07-30T07:51:47.127Z,82.90
2022-07-30T07:54:21.745Z,82.10
2022-07-30T07:56:52.813Z,81.10
2022-07-30T07:59:20.211Z,78.80
2022-07-30T08:01:48.438Z,78.20
2022-07-30T08:04:17.347Z,75.50
2022-07-30T08:06:44.173Z,74.10
2022-07-30T08:09:11.083Z,73.90
2022-07-30T08:11:37.941Z,72.40
2022-07-30T08:14:04.861Z,72.70
2022-07-30T08:16:31.822Z,71.00
2022-07-30T08:18:58.806Z,70.50
2022-07-30T08:21:25.669Z,69.80
2022-07-30T08:23:52.491Z,69.80
2022-07-30T08:26:19.701Z,69.60
2022-07-30T08:28:46.652Z,69.20
2022-07-30T08:31:13.697Z,69.60
2022-07-30T08:33:40.547Z,69.60
2022-07-30T08:36:09.647Z,69.40
2022-07-30T08:38:37.842Z,69.30
2022-07-30T08:41:04.728Z,69.30
2022-07-30T08:43:33.120Z,68.70
2022-07-30T08:46:01.392Z,68.90
2022-07-30T08:48:29.504Z,68.90
2022-07-30T08:50:56.903Z,69.40
2022-07-30T08:53:25.263Z,69.30
2022-07-30T08:55:55.638Z,68.80
2022-07-30T08:58:30.757Z,68.80
2022-07-30T09:00:57.980Z,68.70
2022-07-30T09:03:25.024Z,67.70
2022-07-30T09:05:51.900Z,67.40
2022-07-30T09:08:18.923Z,66.00
2022-07-30T09:10:52.651Z,66.40
2022-07-30T09:13:25.153Z,65.50
2022-07-30T09:15:52.554Z,65.50
2022-07-30T09:18:33.423Z,66.00
2022-07-30T09:21:02.425Z,66.10
2022-07-30T09:23:29.507Z,66.50
2022-07-30T09:26:00.534Z,66.20
2022-07-30T09:28:32.981Z,66.00
2022-07-30T09:31:00.439Z,66.00
2022-07-30T09:33:40.195Z,65.80
2022-07-30T09:36:09.329Z,66.20
2022-07-30T09:38:54.018Z,65.90
2022-07-30T09:41:40.448Z,66.00
2022-07-30T09:44:07.972Z,66.00
2022-07-30T09:46:53.472Z,65.90
2022-07-30T09:49:28.475Z,67.10
2022-07-30T09:51:57.473Z,67.00
2022-07-30T09:54:51.888Z,67.00
2022-07-30T09:57:26.286Z,66.60
2022-07-30T10:00:15.388Z,68.90
2022-07-30T10:02:42.357Z,71.30
2022-07-30T10:05:15.272Z,74.10
2022-07-30T10:07:57.097Z,74.40
2022-07-30T10:10:29.174Z,74.60
2022-07-30T10:13:04.553Z,75.10
2022-07-30T10:15:34.936Z,75.50
2022-07-30T10:18:06.311Z,75.20
2022-07-30T10:20:35.215Z,73.40
2022-07-30T10:23:08.887Z,74.70
2022-07-30T10:25:36.928Z,73.80
2022-07-30T10:28:17.595Z,73.20
2022-07-30T10:30:45.437Z,72.50
2022-07-30T10:33:34.222Z,72.20
2022-07-30T10:35:59.812Z,71.20
2022-07-30T10:38:34.316Z,69.40
2022-07-30T10:41:42.556Z,69.40
2022-07-30T10:44:32.455Z,66.70
2022-07-30T10:47:06.925Z,63.40
2022-07-30T10:49:41.636Z,62.10
2022-07-30T10:52:10.378Z,61.70
2022-07-30T10:54:42.869Z,60.30
2022-07-30T10:57:15.061Z,59.10
2022-07-30T10:59:50.262Z,56.80
2022-07-30T11:02:19.716Z,55.00
2022-07-30T11:04:46.964Z,52.30
2022-07-30T11:07:27.812Z,52.20
2022-07-30T11:10:05.350Z,52.70
2022-07-30T11:12:41.691Z,53.20
2022-07-30T11:15:18.968Z,52.80
2022-07-30T11:18:13.057Z,51.70
2022-07-30T11:20:40.868Z,52.40
2022-07-30T11:23:24.523Z,53.50
2022-07-30T11:25:54.937Z,54.50
2022-07-30T11:28:35.809Z,55.50
2022-07-30T11:31:10.021Z,57.50
2022-07-30T11:33:37.685Z,58.10
2022-07-30T11:36:11.978Z,57.90
2022-07-30T11:39:00.061Z,56.80
2022-07-30T11:41:34.003Z,55.50
2022-07-30T11:44:26.686Z,54.30
2022-07-30T11:46:53.697Z,53.70
2022-07-30T11:49:20.656Z,52.90
2022-07-30T11:51:49.795Z,52.30
2022-07-30T11:54:17.284Z,52.00
2022-07-30T11:56:52.003Z,51.60
2022-07-30T11:59:18.857Z,50.70
2022-07-30T12:01:50.581Z,50.80
2022-07-30T12:04:17.641Z,52.30
2022-07-30T12:06:47.017Z,53.20
2022-07-30T12:09:22.328Z,53.00
2022-07-30T12:11:49.250Z,52.70
2022-07-30T12:14:16.128Z,52.50
2022-07-30T12:16:49.961Z,53.50
2022-07-30T12:19:16.813Z,54.00
2022-07-30T12:21:43.688Z,54.10
2022-07-30T12:24:11.705Z,54.40
2022-07-30T12:26:38.546Z,54.50
2022-07-30T12:29:13.519Z,55.40
2022-07-30T12:31:40.941Z,55.30
2022-07-30T12:34:26.321Z,54.30
2022-07-30T12:36:53.918Z,52.20
2022-07-30T12:39:26.822Z,50.10
2022-07-30T12:41:57.864Z,50.30
2022-07-30T12:44:42.011Z,51.00
2022-07-30T12:47:38.668Z,50.50
2022-07-30T12:50:16.782Z,50.90
2022-07-30T12:52:51.188Z,51.50
2022-07-30T12:55:18.951Z,51.10
2022-07-30T12:57:56.391Z,51.20
2022-07-30T13:00:25.593Z,50.50
2022-07-30T13:02:52.629Z,49.90
2022-07-30T13:05:20.123Z,51.00
2022-07-30T13:07:54.434Z,51.40
2022-07-30T13:10:21.447Z,52.00
2022-07-30T13:12:48.455Z,53.40
2022-07-30T13:15:22.692Z,53.30
2022-07-30T13:17:49.790Z,53.30
2022-07-30T13:20:17.931Z,54.20
2022-07-30T13:22:45.440Z,53.20
2022-07-30T13:25:12.903Z,52.40
2022-07-30T13:27:40.298Z,52.30
2022-07-30T13:30:08.006Z,51.00
2022-07-30T13:32:35.077Z,50.40
2022-07-30T13:35:02.230Z,49.70
2022-07-30T13:37:38.278Z,49.00
2022-07-30T13:40:06.595Z,48.40
2022-07-30T13:42:33.466Z,48.30
2022-07-30T13:45:00.295Z,48.30
2022-07-30T13:47:27.127Z,48.80
2022-07-30T13:49:54.068Z,49.00
2022-07-30T13:52:21.045Z,49.80
2022-07-30T13:54:48.271Z,49.40
2022-07-30T13:57:15.198Z,50.50
2022-07-30T13:59:42.021Z,51.20
2022-07-30T14:02:08.860Z,51.20
2022-07-30T14:04:35.703Z,51.30
2022-07-30T14:07:02.860Z,51.50
2022-07-30T14:09:30.004Z,51.30
2022-07-30T14:11:56.918Z,49.60
2022-07-30T14:14:23.760Z,49.60
2022-07-30T14:16:51.767Z,48.70
2022-07-30T14:19:24.049Z,47.90
2022-07-30T14:21:52.739Z,47.40
2022-07-30T14:24:20.899Z,46.70
2022-07-30T14:26:48.430Z,47.20
2022-07-30T14:29:15.342Z,47.60
2022-07-30T14:31:42.207Z,47.70
2022-07-30T14:34:09.311Z,48.20
2022-07-30T14:36:37.310Z,48.40
2022-07-30T14:39:04.896Z,48.60
2022-07-30T14:41:32.441Z,47.00
2022-07-30T14:43:59.259Z,47.80
2022-07-30T14:46:26.072Z,49.20
2022-07-30T14:48:52.944Z,49.60
2022-07-30T14:51:25.868Z,49.90
2022-07-30T14:53:53.797Z,51.10
2022-07-30T14:56:22.204Z,52.60
2022-07-30T14:58:49.080Z,53.00
2022-07-30T15:01:17.135Z,53.10
2022-07-30T15:03:45.704Z,53.20
2022-07-30T15:06:14.981Z,53.40
2022-07-30T15:08:42.698Z,53.70
2022-07-30T15:11:09.834Z,54.20
2022-07-30T15:13:38.529Z,54.70
2022-07-30T15:16:16.670Z,55.10
2022-07-30T15:18:43.550Z,55.60
2022-07-30T15:21:10.532Z,55.70
2022-07-30T15:23:37.340Z,55.60
2022-07-30T15:26:04.528Z,55.90
2022-07-30T15:28:31.365Z,56.20
2022-07-30T15:30:58.288Z,57.00
2022-07-30T15:33:25.638Z,56.60
2022-07-30T15:35:52.829Z,55.10
2022-07-30T15:38:19.711Z,55.30
2022-07-30T15:40:46.629Z,56.00
2022-07-30T15:43:13.529Z,56.40
2022-07-30T15:45:55.590Z,57.30
2022-07-30T15:48:24.874Z,57.50
2022-07-30T15:51:04.193Z,58.30
2022-07-30T15:53:31.751Z,59.40
2022-07-30T15:55:59.746Z,59.80
2022-07-30T15:58:26.978Z,61.30
2022-07-30T16:00:53.972Z,60.60
2022-07-30T16:03:21.012Z,61.10
2022-07-30T16:05:51.465Z,62.40
2022-07-30T16:08:21.019Z,63.80
2022-07-30T16:10:48.708Z,65.00
2022-07-30T16:13:16.052Z,66.00
2022-07-30T16:15:42.891Z,66.00
2022-07-30T16:18:10.424Z,67.00
2022-07-30T16:20:37.368Z,67.40
2022-07-30T16:23:05.528Z,67.60
2022-07-30T16:25:34.028Z,68.20
2022-07-30T16:28:00.824Z,68.20
2022-07-30T16:30:29.751Z,68.90
2022-07-30T16:32:56.588Z,69.80
2022-07-30T16:35:23.879Z,69.40
2022-07-30T16:37:51.147Z,69.60
2022-07-30T16:40:18.089Z,69.80
2022-07-30T16:42:45.015Z,70.20
2022-07-30T16:45:11.915Z,70.90
2022-07-30T16:47:39.137Z,71.00
2022-07-30T16:50:06.528Z,71.40
2022-07-30T16:52:33.420Z,71.60
2022-07-30T16:55:00.281Z,71.70
2022-07-30T16:57:27.527Z,70.80
2022-07-30T16:59:54.347Z,71.00
2022-07-30T17:02:21.232Z,71.80
2022-07-30T17:04:48.130Z,72.50
2022-07-30T17:07:15.207Z,72.90
2022-07-30T17:09:42.154Z,72.80
2022-07-30T17:12:11.912Z,72.00
2022-07-30T17:14:40.510Z,72.20
2022-07-30T17:17:13.451Z,72.60
2022-07-30T17:19:41.175Z,73.00
2022-07-30T17:22:08.508Z,73.10
2022-07-30T17:24:35.432Z,73.30
2022-07-30T17:27:02.547Z,73.80
2022-07-30T17:29:29.782Z,74.10
2022-07-30T17:31:56.653Z,75.00
2022-07-30T17:34:23.661Z,74.90
2022-07-30T17:36:52.377Z,75.20
2022-07-30T17:40:19.334Z,75.40
2022-07-30T17:42:12.951Z,75.30
2022-07-30T17:44:41.853Z,75.00
2022-07-30T17:47:14.632Z,75.50
2022-07-30T17:49:43.438Z,75.80
2022-07-30T17:52:10.448Z,76.00
2022-07-30T17:54:37.646Z,76.50
2022-07-30T17:57:04.651Z,76.70
2022-07-30T17:59:32.083Z,77.20
2022-07-30T18:01:59.981Z,77.50
2022-07-30T18:04:27.573Z,77.70
2022-07-30T18:06:54.559Z,78.10
2022-07-30T18:09:21.873Z,78.70
2022-07-30T18:11:49.097Z,78.90
2022-07-30T18:14:18.765Z,79.40
2022-07-30T18:16:45.673Z,79.80
2022-07-30T18:19:26.798Z,80.30
2022-07-30T18:21:54.291Z,80.40
2022-07-30T18:24:24.651Z,80.90
2022-07-30T18:26:52.448Z,81.10
2022-07-30T18:29:19.429Z,81.20
2022-07-30T18:31:48.112Z,81.50
2022-07-30T18:34:15.119Z,81.60
2022-07-30T18:36:41.930Z,81.90
2022-07-30T18:39:08.832Z,82.60
2022-07-30T18:41:35.649Z,83.00
2022-07-30T18:44:02.597Z,83.10
2022-07-30T18:46:29.455Z,83.40
2022-07-30T18:48:56.948Z,83.70
2022-07-30T18:51:25.243Z,84.00
2022-07-30T18:53:53.636Z,84.40
2022-07-30T18:56:20.854Z,84.50
2022-07-30T18:58:47.780Z,84.80
2022-07-30T19:01:14.666Z,85.20
2022-07-30T19:03:41.599Z,85.60
2022-07-30T19:06:08.570Z,86.00
2022-07-30T19:08:35.415Z,86.30
2022-07-30T19:11:02.235Z,86.50
2022-07-30T19:13:29.100Z,86.90
2022-07-30T19:15:56.012Z,87.40
2022-07-30T19:18:22.846Z,87.90
2022-07-30T19:20:50.734Z,88.60
2022-07-30T19:23:18.591Z,89.30
2022-07-30T19:25:45.491Z,89.70
2022-07-30T19:28:13.904Z,90.10
2022-07-30T19:30:40.953Z,90.20
2022-07-30T19:33:14.783Z,90.40
2022-07-30T19:35:42.972Z,90.60
2022-07-30T19:38:11.910Z,90.80
2022-07-30T19:40:48.766Z,91.10
2022-07-30T19:43:16.266Z,91.50
2022-07-30T19:45:46.726Z,91.70
2022-07-30T19:48:15.288Z,91.70
2022-07-30T19:50:57.628Z,91.70
2022-07-30T19:53:26.175Z,92.10
2022-07-30T19:55:54.903Z,92.30
2022-07-30T19:58:22.503Z,92.50
2022-07-30T20:00:51.869Z,92.70
2022-07-30T20:03:25.463Z,92.90
2022-07-30T20:05:57.633Z,93.10
2022-07-30T20:08:27.112Z,93.20
2022-07-30T20:13:45.467Z,93.60
2022-07-30T20:16:17.404Z,94.00
2022-07-30T20:18:46.111Z,94.50
2022-07-30T20:21:16.426Z,94.80
2022-07-30T20:23:44.874Z,94.80
2022-07-30T20:26:14.828Z,94.90
2022-07-30T20:28:45.702Z,95.10
2022-07-30T20:31:13.111Z,95.30
2022-07-30T20:33:40.231Z,95.50
2022-07-30T20:36:09.789Z,95.90
2022-07-30T20:38:38.899Z,96.00
2022-07-30T20:41:10.109Z,96.30
2022-07-30T20:43:51.448Z,96.50
2022-07-30T20:46:20.279Z,96.80
2022-07-30T20:48:47.468Z,97.20
2022-07-30T20:51:14.708Z,97.40
2022-07-30T20:53:45.048Z,97.70
2022-07-30T20:56:13.594Z,97.90
2022-07-30T20:58:46.110Z,98.20
2022-07-30T21:01:17.342Z,98.50
2022-07-30T21:03:47.507Z,98.90
2022-07-30T21:06:15.114Z,98.90
2022-07-30T21:08:41.915Z,99.10
2022-07-30T21:11:09.712Z,99.30
2022-07-30T21:13:36.976Z,99.50
2022-07-30T21:16:15.882Z,99.60
2022-07-30T21:18:49.210Z,99.70
2022-07-30T21:21:38.259Z,99.90
2022-07-30T21:24:11.389Z,99.90
2022-07-30T21:26:40.529Z,99.90
2022-07-30T21:29:08.669Z,99.90
2022-07-30T21:32:01.484Z,99.90
2022-07-30T21:34:26.461Z,99.90
2022-07-30T21:36:54.270Z,99.90
2022-07-30T21:39:28.812Z,99.90
2022-07-30T21:41:56.629Z,99.90
2022-07-30T21:44:23.977Z,99.90
2022-07-30T21:46:52.197Z,99.90
2022-07-30T21:49:19.009Z,99.90
2022-07-30T21:51:46.015Z,99.90
2022-07-30T21:54:13.885Z,99.90
2022-07-30T21:56:43.956Z,99.90
2022-07-30T21:59:10.839Z,99.90
2022-07-30T22:01:38.952Z,99.90
2022-07-30T22:04:14.725Z,99.90
2022-07-30T22:06:43.456Z,99.90
2022-07-30T22:09:19.762Z,99.90
2022-07-30T22:12:01.186Z,99.90
2022-07-30T22:14:29.172Z,99.90
2022-07-30T22:16:56.585Z,99.90
2022-07-30T22:19:25.999Z,99.90
2022-07-30T22:21:53.002Z,99.90
2022-07-30T22:24:29.942Z,99.90
2022-07-30T22:27:11.057Z,99.90
2022-07-30T22:29:48.909Z,99.90
2022-07-30T22:32:15.972Z,99.90
2022-07-30T22:34:42.758Z,99.90
2022-07-30T22:37:13.426Z,99.90
2022-07-30T22:39:50.488Z,99.90
2022-07-30T22:42:18.587Z,99.90
2022-07-30T22:44:47.423Z,99.90
2022-07-30T22:47:50.644Z,99.90
2022-07-30T22:50:23.962Z,99.90
2022-07-30T22:52:56.104Z,99.90
2022-07-30T22:55:26.509Z,99.90
2022-07-30T22:57:53.886Z,99.90
2022-07-30T23:00:27.791Z,99.90
2022-07-30T23:02:56.606Z,99.90
2022-07-30T23:05:23.944Z,99.90
2022-07-30T23:07:51.228Z,99.90
2022-07-30T23:10:20.422Z,99.90
2022-07-30T23:12:15.967Z,93.40
2022-07-30T23:12:51.068Z,99.90
2022-07-30T23:15:18.484Z,99.90
2022-07-30T23:17:45.675Z,99.90
2022-07-30T23:20:15.107Z,99.90
2022-07-30T23:22:42.497Z,99.90
2022-07-30T23:25:10.546Z,99.90
2022-07-30T23:27:38.336Z,99.90
2022-07-30T23:30:07.192Z,99.90
2022-07-30T23:32:34.139Z,99.90
2022-07-30T23:35:00.937Z,99.90
2022-07-30T23:37:27.829Z,99.90
2022-07-30T23:39:54.793Z,99.90
2022-07-30T23:42:21.586Z,99.90
2022-07-30T23:44:48.408Z,99.90
2022-07-30T23:47:16.034Z,99.90
2022-07-30T23:49:42.918Z,99.90
2022-07-30T23:52:09.759Z,99.90
2022-07-30T23:54:36.770Z,99.90
2022-07-30T23:57:04.198Z,99.90
2022-07-30T23:59:40.938Z,99.90
